Time;durP1;ratioP1;P1;durP2;ratioP2;P2;SDS_P1;SDS_P2;PMS_P1;PMS_P2;Temp;Humidity;BMP_temperature;BMP_pressure;BME280_temperature;BME280_humidity;BME280_pressure;Samples;Min_cycle;Max_cycle;Signal;HPM_P1;HPM_P2
2021/09/17 00:01:49;;;;;;;0.50;0.40;;;13.60;99.90;;;;;;5073935;28;20470;-79
2021/09/17 00:04:16;;;;;;;0.50;0.40;;;13.70;99.90;;;;;;5074456;28;20447;-78
2021/09/17 00:06:42;;;;;;;0.50;0.40;;;13.80;99.90;;;;;;5074025;28;20452;-76
2021/09/17 00:09:09;;;;;;;0.50;0.40;;;13.80;99.90;;;;;;5073508;28;20194;-77
2021/09/17 00:11:36;;;;;;;0.50;0.40;;;13.90;99.90;;;;;;5073225;28;20503;-76
2021/09/17 00:14:03;;;;;;;0.50;0.40;;;14.00;99.90;;;;;;5074158;28;20843;-78
2021/09/17 00:16:31;;;;;;;0.50;0.40;;;14.00;99.90;;;;;;5074405;28;20206;-78
2021/09/17 00:18:57;;;;;;;0.50;0.40;;;14.10;99.90;;;;;;5073788;28;20543;-78
2021/09/17 00:21:24;;;;;;;0.50;0.40;;;14.10;99.90;;;;;;5073125;28;20460;-79
2021/09/17 00:23:51;;;;;;;0.50;0.40;;;14.20;99.90;;;;;;5073457;28;20443;-79
2021/09/17 00:26:18;;;;;;;0.50;0.40;;;14.20;99.90;;;;;;5073435;28;20810;-78
2021/09/17 00:28:45;;;;;;;0.50;0.40;;;14.30;99.90;;;;;;5074208;28;20463;-78
2021/09/17 00:31:12;;;;;;;0.50;0.40;;;14.30;99.90;;;;;;5073852;28;20482;-78
2021/09/17 00:33:40;;;;;;;0.50;0.40;;;14.30;99.90;;;;;;5073327;28;20461;-76
2021/09/17 00:36:06;;;;;;;0.50;0.30;;;14.30;99.90;;;;;;5073170;28;20439;-78
2021/09/17 00:38:33;;;;;;;0.50;0.50;;;14.40;99.90;;;;;;5073095;28;20437;-78
2021/09/17 00:41:00;;;;;;;0.50;0.40;;;14.40;99.90;;;;;;5072656;28;20464;-78
2021/09/17 00:43:26;;;;;;;0.50;0.40;;;14.40;99.90;;;;;;5073203;28;20817;-78
2021/09/17 00:45:53;;;;;;;3.30;3.13;;;14.40;99.90;;;;;;5073402;28;20432;-78
2021/09/17 00:48:20;;;;;;;2.10;1.90;;;14.50;99.90;;;;;;5073418;28;20436;-78
2021/09/17 00:50:48;;;;;;;1.07;0.97;;;14.60;99.90;;;;;;5073091;28;20437;-79
2021/09/17 00:53:14;;;;;;;1.70;1.60;;;14.60;99.90;;;;;;5073316;28;20483;-78
2021/09/17 00:55:41;;;;;;;1.23;1.23;;;14.60;99.90;;;;;;5073117;28;20598;-75
2021/09/17 00:58:08;;;;;;;0.50;0.40;;;14.60;99.90;;;;;;5072842;28;20447;-78
2021/09/17 01:00:35;;;;;;;2.40;2.30;;;14.70;99.90;;;;;;5072955;28;20437;-77
2021/09/17 01:03:01;;;;;;;0.57;0.55;;;14.70;99.90;;;;;;5073637;28;20433;-79
2021/09/17 01:05:28;;;;;;;0.50;0.40;;;14.80;99.90;;;;;;5073131;28;20205;-78
2021/09/17 01:07:57;;;;;;;0.50;0.40;;;14.80;99.90;;;;;;5073175;28;20437;-78
2021/09/17 01:10:25;;;;;;;0.50;0.40;;;14.80;99.90;;;;;;5072749;28;20441;-79
2021/09/17 01:12:52;;;;;;;0.50;0.40;;;14.80;99.90;;;;;;5072965;28;20476;-79
2021/09/17 01:15:19;;;;;;;0.50;0.33;;;14.80;99.90;;;;;;5071861;28;20441;-77
2021/09/17 01:17:46;;;;;;;0.50;0.40;;;14.80;99.90;;;;;;5073824;28;20443;-76
2021/09/17 01:20:15;;;;;;;0.50;0.33;;;14.80;99.90;;;;;;5072838;28;20444;-78
2021/09/17 01:22:45;;;;;;;0.50;0.40;;;14.80;99.90;;;;;;5073005;28;20459;-78
2021/09/17 01:25:14;;;;;;;0.50;0.40;;;14.80;99.90;;;;;;5072584;28;20437;-79
2021/09/17 01:27:42;;;;;;;0.50;0.40;;;14.80;99.90;;;;;;5074078;28;20830;-78
2021/09/17 01:30:10;;;;;;;0.60;0.60;;;14.90;99.90;;;;;;5072361;28;20444;-79
2021/09/17 01:32:41;;;;;;;0.50;0.30;;;14.80;99.90;;;;;;5072318;28;20487;-76
2021/09/17 01:35:09;;;;;;;0.73;0.73;;;14.90;99.90;;;;;;5074018;28;20849;-79
2021/09/17 01:37:35;;;;;;;0.50;0.40;;;14.90;99.90;;;;;;5073128;28;20852;-78
2021/09/17 01:40:04;;;;;;;0.50;0.30;;;14.90;99.90;;;;;;5071823;28;20432;-77
2021/09/17 01:42:31;;;;;;;0.50;0.40;;;14.90;99.90;;;;;;5072382;28;20468;-78
2021/09/17 01:44:57;;;;;;;0.50;0.40;;;14.90;99.90;;;;;;5073203;28;20844;-78
2021/09/17 01:47:24;;;;;;;0.50;0.40;;;15.00;99.90;;;;;;5072637;28;20440;-78
2021/09/17 01:49:51;;;;;;;0.50;0.40;;;14.90;99.90;;;;;;5073817;28;20968;-77
2021/09/17 01:52:18;;;;;;;0.50;0.37;;;15.00;99.90;;;;;;5076319;28;20477;-79
2021/09/17 01:54:45;;;;;;;0.50;0.30;;;15.00;99.90;;;;;;5076129;28;20518;-78
2021/09/17 01:57:13;;;;;;;0.50;0.40;;;14.90;99.90;;;;;;5076115;28;20451;-78
2021/09/17 01:59:40;;;;;;;0.50;0.40;;;14.90;99.90;;;;;;5076937;28;20810;-79
2021/09/17 02:02:06;;;;;;;0.73;0.73;;;15.00;99.90;;;;;;5076238;28;20864;-79
2021/09/17 02:04:33;;;;;;;0.73;0.73;;;15.00;99.90;;;;;;5076764;28;20433;-79
2021/09/17 02:07:00;;;;;;;0.50;0.40;;;15.10;99.90;;;;;;5076703;28;20449;-78
2021/09/17 02:09:26;;;;;;;1.53;1.37;;;15.10;99.90;;;;;;5075351;28;20436;-78
2021/09/17 02:11:53;;;;;;;3.23;2.00;;;15.10;99.90;;;;;;5074328;28;20977;-78
2021/09/17 02:14:21;;;;;;;0.50;0.40;;;15.10;99.90;;;;;;5075123;28;20444;-78
2021/09/17 02:16:48;;;;;;;1.33;1.23;;;15.10;99.90;;;;;;5074728;28;20945;-77
2021/09/17 02:19:15;;;;;;;0.50;0.40;;;15.10;99.90;;;;;;5074476;28;20443;-78
2021/09/17 02:21:41;;;;;;;0.50;0.40;;;15.10;99.90;;;;;;5074859;28;21245;-77
2021/09/17 02:24:08;;;;;;;0.50;0.40;;;15.10;99.90;;;;;;5075219;28;20434;-77
2021/09/17 02:26:35;;;;;;;0.57;0.50;;;15.10;99.90;;;;;;5074816;28;20534;-78
2021/09/17 02:29:01;;;;;;;0.50;0.40;;;15.10;99.90;;;;;;5074442;28;20441;-78
2021/09/17 02:31:29;;;;;;;0.50;0.40;;;15.10;99.90;;;;;;5074238;28;20475;-77
2021/09/17 02:33:56;;;;;;;0.73;0.73;;;15.10;99.90;;;;;;5074579;28;20472;-78
2021/09/17 02:36:23;;;;;;;0.80;0.80;;;15.10;99.90;;;;;;5074750;28;20452;-77
2021/09/17 02:38:49;;;;;;;1.10;0.97;;;15.10;99.90;;;;;;5075321;28;20474;-78
2021/09/17 02:41:16;;;;;;;0.93;0.93;;;15.10;99.90;;;;;;5075430;28;20468;-78
2021/09/17 02:43:44;;;;;;;2.10;1.90;;;15.10;99.90;;;;;;5075748;28;20805;-78
2021/09/17 02:46:11;;;;;;;3.33;2.60;;;15.10;99.90;;;;;;5075251;28;20449;-79
2021/09/17 02:48:40;;;;;;;0.90;0.90;;;15.10;99.90;;;;;;5075438;28;20444;-79
2021/09/17 02:51:07;;;;;;;0.50;0.37;;;15.10;99.90;;;;;;5075405;28;20465;-79
2021/09/17 02:53:34;;;;;;;0.50;0.40;;;15.10;99.90;;;;;;5075680;28;20833;-79
2021/09/17 02:56:01;;;;;;;2.00;1.90;;;15.10;99.90;;;;;;5075371;28;20490;-78
2021/09/17 02:58:27;;;;;;;1.53;1.40;;;15.10;99.90;;;;;;5074927;28;20445;-78
2021/09/17 03:00:54;;;;;;;0.50;0.47;;;15.10;99.90;;;;;;5074259;28;20794;-79
2021/09/17 03:03:21;;;;;;;0.63;0.63;;;15.10;99.90;;;;;;5075294;28;20437;-79
2021/09/17 03:05:49;;;;;;;0.57;0.37;;;15.10;99.90;;;;;;5075262;28;20445;-77
2021/09/17 03:08:16;;;;;;;0.50;0.40;;;15.00;99.90;;;;;;5075598;28;20437;-79
2021/09/17 03:10:42;;;;;;;0.50;0.37;;;15.00;99.90;;;;;;5075086;28;20436;-79
2021/09/17 03:13:09;;;;;;;0.50;0.30;;;15.00;99.90;;;;;;5074198;28;20472;-78
2021/09/17 03:15:36;;;;;;;0.50;0.40;;;14.90;99.90;;;;;;5075072;28;20432;-78
2021/09/17 03:18:02;;;;;;;0.60;0.50;;;15.00;99.90;;;;;;5073950;28;20437;-76
2021/09/17 03:20:29;;;;;;;2.60;2.30;;;15.00;99.90;;;;;;5074503;28;20440;-77
2021/09/17 03:22:57;;;;;;;0.50;0.40;;;15.00;99.90;;;;;;5065184;28;20489;-77
2021/09/17 03:25:24;;;;;;;0.80;0.80;;;15.00;99.90;;;;;;5049454;28;20469;-77
2021/09/17 03:27:51;;;;;;;0.53;0.50;;;15.00;99.90;;;;;;5055094;28;20444;-78
2021/09/17 03:30:18;;;;;;;0.70;0.70;;;15.00;99.90;;;;;;5053908;28;20483;-78
2021/09/17 03:32:44;;;;;;;4.43;4.13;;;15.00;99.90;;;;;;5053743;28;20508;-78
2021/09/17 03:35:11;;;;;;;1.27;1.27;;;15.00;99.90;;;;;;5054839;28;20444;-77
2021/09/17 03:37:38;;;;;;;2.73;2.40;;;15.00;99.90;;;;;;5056519;28;20434;-78
2021/09/17 03:40:08;;;;;;;2.43;1.50;;;15.00;99.90;;;;;;5055265;28;20461;-77
2021/09/17 03:42:35;;;;;;;0.90;0.90;;;15.00;99.90;;;;;;5038518;28;20466;-78
2021/09/17 03:45:01;;;;;;;0.73;0.73;;;14.90;99.90;;;;;;5035345;28;20803;-78
2021/09/17 03:47:28;;;;;;;0.50;0.30;;;14.90;99.90;;;;;;5034616;28;20453;-78
2021/09/17 03:49:55;;;;;;;1.77;1.60;;;14.90;99.90;;;;;;5034007;28;20442;-77
2021/09/17 03:52:21;;;;;;;0.50;0.40;;;14.90;99.90;;;;;;5034023;28;20470;-78
2021/09/17 03:54:48;;;;;;;0.50;0.40;;;14.90;99.90;;;;;;5034093;28;20490;-78
2021/09/17 03:57:16;;;;;;;0.50;0.30;;;14.90;99.90;;;;;;5034372;28;20442;-78
2021/09/17 03:59:43;;;;;;;0.50;0.40;;;14.90;99.90;;;;;;5034325;28;20446;-78
2021/09/17 04:02:10;;;;;;;0.67;0.67;;;14.90;99.90;;;;;;5033701;28;20470;-78
2021/09/17 04:04:39;;;;;;;3.87;3.57;;;14.90;99.90;;;;;;5034296;28;21072;-78
2021/09/17 04:07:06;;;;;;;0.50;0.40;;;14.90;99.90;;;;;;5033684;28;20450;-78
2021/09/17 04:09:33;;;;;;;0.50;0.40;;;15.00;99.90;;;;;;5033919;28;20450;-77
2021/09/17 04:12:00;;;;;;;3.20;1.40;;;15.00;99.90;;;;;;5033366;28;20470;-78
2021/09/17 04:14:28;;;;;;;1.57;1.47;;;15.00;99.90;;;;;;5033182;28;20470;-77
2021/09/17 04:16:55;;;;;;;5.60;4.27;;;15.00;99.90;;;;;;5033138;28;20439;-76
2021/09/17 04:19:21;;;;;;;0.60;0.60;;;15.00;99.90;;;;;;5057966;28;20445;-78
2021/09/17 04:21:48;;;;;;;3.00;1.80;;;15.00;99.90;;;;;;5069114;28;20468;-78
2021/09/17 04:24:15;;;;;;;4.13;3.93;;;15.00;99.90;;;;;;5071882;28;20448;-78
2021/09/17 04:26:41;;;;;;;3.67;3.57;;;15.00;99.90;;;;;;5072236;28;20490;-78
2021/09/17 04:29:08;;;;;;;2.40;2.20;;;14.90;99.90;;;;;;5072257;28;20440;-78
2021/09/17 04:31:36;;;;;;;0.50;0.30;;;14.90;99.90;;;;;;5071363;28;20475;-77
2021/09/17 04:34:03;;;;;;;0.70;0.70;;;14.80;99.90;;;;;;5072380;28;20591;-78
2021/09/17 04:36:29;;;;;;;4.43;2.57;;;14.80;99.90;;;;;;5072293;28;20437;-80
2021/09/17 04:38:56;;;;;;;1.23;1.17;;;14.80;99.90;;;;;;5072673;28;20445;-78
2021/09/17 04:41:23;;;;;;;0.50;0.40;;;14.80;99.90;;;;;;5073371;28;20502;-79
2021/09/17 04:43:49;;;;;;;1.83;1.73;;;14.80;99.90;;;;;;5073607;28;20433;-79
2021/09/17 04:46:16;;;;;;;0.50;0.40;;;14.80;99.90;;;;;;5073462;28;20932;-78
2021/09/17 04:48:44;;;;;;;0.50;0.40;;;14.90;99.90;;;;;;5072641;28;20439;-78
2021/09/17 04:51:11;;;;;;;0.80;0.80;;;14.90;99.90;;;;;;5072223;28;20457;-77
2021/09/17 04:53:37;;;;;;;0.67;0.67;;;14.80;99.90;;;;;;5072413;28;20551;-78
2021/09/17 04:56:04;;;;;;;0.50;0.40;;;14.80;99.90;;;;;;5073235;28;20451;-78
2021/09/17 04:58:31;;;;;;;0.50;0.50;;;14.80;99.90;;;;;;5072054;28;20455;-78
2021/09/17 05:00:58;;;;;;;0.50;0.40;;;14.80;99.90;;;;;;5072195;28;20464;-77
2021/09/17 05:03:24;;;;;;;1.63;1.53;;;14.80;99.90;;;;;;5052890;28;20441;-77
2021/09/17 05:05:52;;;;;;;2.60;2.50;;;14.80;99.90;;;;;;5052449;28;20461;-77
2021/09/17 05:08:19;;;;;;;0.50;0.40;;;14.70;99.90;;;;;;5052807;28;20441;-78
2021/09/17 05:10:46;;;;;;;0.50;0.40;;;14.70;99.90;;;;;;5051784;28;20950;-78
2021/09/17 05:13:13;;;;;;;2.63;2.43;;;14.70;99.90;;;;;;5052141;28;20480;-77
2021/09/17 05:15:40;;;;;;;0.60;0.50;;;14.70;99.90;;;;;;5053144;28;20449;-78
2021/09/17 05:18:06;;;;;;;0.50;0.33;;;14.70;99.90;;;;;;5051875;28;20449;-77
2021/09/17 05:20:33;;;;;;;0.50;0.40;;;14.80;99.90;;;;;;5051904;28;20487;-78
2021/09/17 05:23:01;;;;;;;0.50;0.40;;;14.80;99.90;;;;;;5052251;28;20461;-77
2021/09/17 05:25:28;;;;;;;1.60;1.50;;;14.80;99.90;;;;;;5055563;28;20456;-77
2021/09/17 05:27:54;;;;;;;0.50;0.30;;;14.80;99.90;;;;;;5055118;28;20825;-78
2021/09/17 05:30:21;;;;;;;0.60;0.60;;;14.80;99.90;;;;;;5048280;28;20437;-78
2021/09/17 05:32:48;;;;;;;0.70;0.70;;;14.80;99.90;;;;;;5054728;28;20483;-77
2021/09/17 05:35:14;;;;;;;3.73;3.50;;;14.80;99.90;;;;;;5058449;28;20469;-79
2021/09/17 05:37:41;;;;;;;0.50;0.40;;;14.90;99.90;;;;;;5059630;28;20472;-79
2021/09/17 05:40:11;;;;;;;0.50;0.30;;;14.90;99.90;;;;;;5059588;28;20441;-78
2021/09/17 05:42:38;;;;;;;1.53;1.37;;;14.90;99.90;;;;;;5060342;28;20449;-79
2021/09/17 05:45:06;;;;;;;6.60;1.23;;;15.00;99.90;;;;;;5047606;28;20446;-79
2021/09/17 05:47:32;;;;;;;0.70;0.67;;;15.00;99.90;;;;;;5058725;28;20437;-78
2021/09/17 05:49:59;;;;;;;2.50;2.40;;;15.10;99.90;;;;;;5060016;28;20448;-78
2021/09/17 05:52:26;;;;;;;3.97;3.70;;;15.10;99.90;;;;;;5060464;28;20454;-80
2021/09/17 05:54:53;;;;;;;3.37;1.33;;;15.10;99.90;;;;;;5058665;28;20468;-79
2021/09/17 05:57:21;;;;;;;5.13;2.00;;;15.10;99.90;;;;;;5062449;28;20438;-77
2021/09/17 05:59:48;;;;;;;0.50;0.30;;;15.20;99.90;;;;;;5063197;28;20797;-79
2021/09/17 06:02:14;;;;;;;0.50;0.40;;;15.20;99.90;;;;;;5057075;28;20454;-79
2021/09/17 06:04:41;;;;;;;1.83;1.50;;;15.20;99.90;;;;;;5042031;28;20445;-79
2021/09/17 06:07:08;;;;;;;0.93;0.73;;;15.30;99.90;;;;;;5042747;28;20442;-78
2021/09/17 06:09:35;;;;;;;0.50;0.30;;;15.30;99.90;;;;;;5042309;28;20439;-79
2021/09/17 06:12:02;;;;;;;0.50;0.40;;;15.40;99.90;;;;;;5041728;28;20466;-79
2021/09/17 06:14:30;;;;;;;0.50;0.30;;;15.40;99.90;;;;;;5042371;28;20483;-78
2021/09/17 06:16:57;;;;;;;0.50;0.33;;;15.50;99.90;;;;;;5043553;28;20745;-78
2021/09/17 06:19:24;;;;;;;0.60;0.40;;;15.60;99.90;;;;;;5043188;28;20445;-79
2021/09/17 06:21:50;;;;;;;0.50;0.40;;;15.60;99.90;;;;;;5042051;28;20474;-79
2021/09/17 06:24:17;;;;;;;0.50;0.50;;;15.60;99.90;;;;;;5043282;28;20831;-79
2021/09/17 06:26:44;;;;;;;1.33;1.23;;;15.70;99.90;;;;;;5043150;28;20434;-80
2021/09/17 06:29:12;;;;;;;1.20;1.20;;;15.70;99.90;;;;;;5043302;28;20447;-79
2021/09/17 06:31:40;;;;;;;2.13;2.00;;;15.80;99.90;;;;;;5041903;28;20564;-76
2021/09/17 06:34:07;;;;;;;0.70;0.70;;;15.80;99.90;;;;;;5042999;28;20845;-79
2021/09/17 06:36:34;;;;;;;1.77;0.80;;;15.90;99.90;;;;;;5042614;28;20438;-79
2021/09/17 06:39:01;;;;;;;3.90;2.63;;;16.00;99.90;;;;;;5051542;28;20865;-79
2021/09/17 06:41:28;;;;;;;0.50;0.30;;;16.00;99.90;;;;;;5074135;28;20468;-79
2021/09/17 06:43:55;;;;;;;0.80;0.80;;;16.00;99.90;;;;;;5079807;28;20759;-78
2021/09/17 06:46:22;;;;;;;0.60;0.60;;;16.10;99.90;;;;;;5078284;28;20499;-79
2021/09/17 06:48:50;;;;;;;2.40;1.50;;;16.10;99.90;;;;;;5079705;28;20790;-76
2021/09/17 06:51:17;;;;;;;0.77;0.70;;;16.20;99.90;;;;;;5081133;28;20459;-78
2021/09/17 06:53:44;;;;;;;2.30;1.43;;;16.20;99.90;;;;;;5082170;28;20825;-78
2021/09/17 06:56:11;;;;;;;1.20;1.20;;;16.30;99.90;;;;;;5083779;28;20441;-79
2021/09/17 06:58:38;;;;;;;1.07;1.07;;;16.30;99.90;;;;;;5084452;28;20443;-80
2021/09/17 07:01:05;;;;;;;0.50;0.40;;;16.40;99.90;;;;;;5082817;28;20462;-79
2021/09/17 07:03:32;;;;;;;1.27;1.17;;;16.40;99.90;;;;;;5083890;28;20441;-79
2021/09/17 07:06:00;;;;;;;5.33;2.60;;;16.40;99.90;;;;;;5083477;28;20434;-79
2021/09/17 07:08:27;;;;;;;8.87;2.07;;;16.60;99.90;;;;;;5083197;28;20428;-79
2021/09/17 07:10:53;;;;;;;0.70;0.50;;;16.70;99.90;;;;;;5082379;28;20434;-78
2021/09/17 07:13:20;;;;;;;0.50;0.40;;;16.80;99.90;;;;;;5083308;28;20430;-79
2021/09/17 07:15:47;;;;;;;1.27;1.27;;;16.90;99.90;;;;;;5082503;28;21162;-77
2021/09/17 07:18:14;;;;;;;0.53;0.50;;;17.00;99.90;;;;;;5083541;28;20440;-77
2021/09/17 07:20:41;;;;;;;2.20;1.73;;;17.20;99.90;;;;;;5083117;28;20793;-78
2021/09/17 07:23:11;;;;;;;1.70;1.07;;;17.50;99.90;;;;;;5069897;28;20442;-80
2021/09/17 07:25:39;;;;;;;4.13;3.83;;;17.80;99.90;;;;;;5062512;28;20424;-79
2021/09/17 07:28:06;;;;;;;4.07;3.80;;;18.10;99.90;;;;;;5062792;28;20443;-79
2021/09/17 07:30:33;;;;;;;0.70;0.70;;;18.40;99.90;;;;;;5062963;28;20431;-79
2021/09/17 07:33:00;;;;;;;1.47;0.90;;;18.40;99.90;;;;;;5061028;28;20467;-79
2021/09/17 07:35:27;;;;;;;4.33;3.70;;;18.40;99.90;;;;;;5062283;28;20477;-78
2021/09/17 07:37:54;;;;;;;0.50;0.40;;;18.30;99.90;;;;;;5067296;22;20562;-83
2021/09/17 07:40:23;;;;;;;1.17;1.17;;;18.30;99.90;;;;;;5048683;28;20434;-84
2021/09/17 07:42:50;;;;;;;0.50;0.40;;;18.30;99.90;;;;;;5057345;28;20435;-82
2021/09/17 07:45:17;;;;;;;19.50;4.40;;;18.40;99.90;;;;;;5056817;28;20461;-81
2021/09/17 07:47:45;;;;;;;1.70;1.27;;;18.20;99.90;;;;;;5057690;28;20474;-84
2021/09/17 07:50:13;;;;;;;3.10;2.90;;;17.90;99.90;;;;;;5059053;28;20428;-83
2021/09/17 07:52:40;;;;;;;2.00;1.17;;;17.70;99.90;;;;;;5058451;28;20452;-84
2021/09/17 07:55:09;;;;;;;0.50;0.40;;;17.70;99.90;;;;;;5059390;28;20478;-83
2021/09/17 07:57:37;;;;;;;2.40;2.30;;;17.70;99.90;;;;;;5058608;28;20992;-84
2021/09/17 08:00:06;;;;;;;0.57;0.40;;;17.90;99.90;;;;;;5059261;28;20450;-82
2021/09/17 08:02:32;;;;;;;2.20;2.10;;;18.20;99.90;;;;;;5059496;28;20663;-84
2021/09/17 08:04:59;;;;;;;5.80;3.60;;;18.50;99.90;;;;;;5058739;28;20430;-84
2021/09/17 08:07:26;;;;;;;3.47;3.17;;;19.10;99.90;;;;;;5058931;28;20467;-84
2021/09/17 08:09:52;;;;;;;2.20;2.10;;;19.80;99.90;;;;;;5058874;28;20445;-84
2021/09/17 08:12:19;;;;;;;0.83;0.83;;;20.40;99.90;;;;;;5059521;28;20450;-84
2021/09/17 08:14:47;;;;;;;1.03;0.93;;;20.80;99.90;;;;;;5058511;28;20470;-84
2021/09/17 08:17:14;;;;;;;3.13;2.53;;;21.50;99.90;;;;;;5058044;28;20939;-81
2021/09/17 08:19:40;;;;;;;4.00;3.80;;;22.60;99.90;;;;;;5058088;28;20510;-84
2021/09/17 08:22:07;;;;;;;0.50;0.40;;;23.10;99.90;;;;;;5057423;28;20453;-84
2021/09/17 08:24:34;;;;;;;0.50;0.30;;;24.00;99.90;;;;;;5056341;28;20800;-84
2021/09/17 08:27:01;;;;;;;0.70;0.70;;;25.50;99.90;;;;;;5056550;28;20438;-83
2021/09/17 08:29:28;;;;;;;0.50;0.50;;;26.80;99.90;;;;;;5057252;28;20450;-82
2021/09/17 08:31:56;;;;;;;0.50;0.30;;;27.90;99.90;;;;;;5057443;28;20439;-83
2021/09/17 08:34:24;;;;;;;0.50;0.30;;;29.30;99.90;;;;;;5065190;28;20476;-84
2021/09/17 08:36:50;;;;;;;0.60;0.60;;;30.60;95.40;;;;;;5060124;28;20466;-82
2021/09/17 08:39:17;;;;;;;2.30;1.90;;;30.80;86.90;;;;;;5060395;28;20528;-83
2021/09/17 08:41:45;;;;;;;0.60;0.47;;;30.10;85.50;;;;;;5059070;28;20446;-84
2021/09/17 08:44:12;;;;;;;2.50;0.53;;;29.40;88.00;;;;;;5059778;28;20813;-84
2021/09/17 08:46:41;;;;;;;1.33;1.33;;;29.90;88.80;;;;;;5059670;28;20437;-83
2021/09/17 08:49:10;;;;;;;5.37;3.70;;;30.20;86.60;;;;;;5055963;28;20460;-82
2021/09/17 08:51:36;;;;;;;1.33;1.17;;;29.90;82.90;;;;;;5055890;28;20457;-83
2021/09/17 08:54:04;;;;;;;2.07;1.37;;;28.00;88.00;;;;;;5055592;28;20462;-80
2021/09/17 08:56:34;;;;;;;3.37;2.50;;;26.90;93.60;;;;;;5056198;28;20448;-81
2021/09/17 08:59:02;;;;;;;1.93;1.83;;;26.50;97.80;;;;;;5056199;28;21018;-82
2021/09/17 09:01:31;;;;;;;2.20;1.37;;;26.30;99.90;;;;;;5057151;28;20448;-82
2021/09/17 09:04:01;;;;;;;0.63;0.63;;;27.10;99.80;;;;;;5057616;28;20454;-82
2021/09/17 09:06:36;;;;;;;0.80;0.67;;;28.10;97.60;;;;;;5055641;28;20451;-82
2021/09/17 09:09:06;;;;;;;0.50;0.30;;;28.60;91.30;;;;;;5057407;28;20484;-83
2021/09/17 09:11:35;;;;;;;3.30;3.07;;;29.40;90.90;;;;;;5055395;28;20447;-83
2021/09/17 09:14:06;;;;;;;2.73;0.77;;;29.50;83.10;;;;;;5055890;28;20447;-83
2021/09/17 09:16:34;;;;;;;0.80;0.80;;;28.90;84.10;;;;;;5057239;28;20424;-83
2021/09/17 09:19:20;;;;;;;3.73;3.40;;;28.80;87.20;;;;;;5055841;28;20492;-82
2021/09/17 09:21:49;;;;;;;3.00;2.77;;;27.40;90.20;;;;;;5055531;28;20430;-82
2021/09/17 09:24:17;;;;;;;0.50;0.40;;;26.30;93.80;;;;;;5056652;28;20453;-82
2021/09/17 09:26:45;;;;;;;2.20;2.00;;;25.40;99.90;;;;;;5056008;28;20439;-82
2021/09/17 09:29:29;;;;;;;1.17;1.07;;;24.80;99.90;;;;;;5056815;28;20458;-82
2021/09/17 09:31:56;;;;;;;0.50;0.40;;;24.30;99.90;;;;;;5057788;28;20456;-83
2021/09/17 09:34:24;;;;;;;3.63;1.30;;;24.50;99.90;;;;;;5058453;28;20437;-83
2021/09/17 09:37:05;;;;;;;0.50;0.40;;;25.20;99.90;;;;;;5056992;28;20449;-83
2021/09/17 09:39:51;;;;;;;0.50;0.30;;;24.90;99.90;;;;;;5057646;28;20470;-83
2021/09/17 09:42:20;;;;;;;0.50;0.30;;;24.70;99.90;;;;;;5058050;28;20416;-82
2021/09/17 09:45:07;;;;;;;0.70;0.70;;;24.60;99.90;;;;;;5057433;28;20431;-83
2021/09/17 09:47:35;;;;;;;0.50;0.30;;;24.40;99.90;;;;;;5056748;28;20483;-84
2021/09/17 09:50:07;;;;;;;0.50;0.30;;;24.10;99.90;;;;;;5057499;28;20491;-82
2021/09/17 09:52:35;;;;;;;1.43;0.73;;;23.70;99.90;;;;;;5057197;28;20934;-84
2021/09/17 09:55:02;;;;;;;1.87;1.57;;;23.50;99.90;;;;;;5057266;28;20500;-82
2021/09/17 09:57:31;;;;;;;0.50;0.40;;;23.30;99.90;;;;;;5058158;28;20831;-83
2021/09/17 10:00:03;;;;;;;0.50;0.30;;;23.00;99.90;;;;;;5058230;28;20453;-81
2021/09/17 10:02:31;;;;;;;0.50;0.33;;;22.80;99.90;;;;;;5058437;28;20449;-83
2021/09/17 10:04:59;;;;;;;0.60;0.50;;;23.00;99.90;;;;;;5058880;28;20435;-83
2021/09/17 10:07:28;;;;;;;0.50;0.50;;;23.10;99.90;;;;;;5057417;28;20979;-83
2021/09/17 10:09:57;;;;;;;0.50;0.30;;;23.30;99.90;;;;;;5056135;28;20440;-83
2021/09/17 10:12:25;;;;;;;1.27;1.17;;;23.60;99.90;;;;;;5059448;28;20451;-83
2021/09/17 10:14:52;;;;;;;0.70;0.70;;;23.60;99.90;;;;;;5059167;28;20478;-84
2021/09/17 10:17:23;;;;;;;0.60;0.60;;;23.50;99.90;;;;;;5061131;28;20517;-83
2021/09/17 10:19:52;;;;;;;1.87;1.77;;;23.40;99.90;;;;;;5060261;28;20550;-83
2021/09/17 10:22:31;;;;;;;2.73;1.80;;;23.20;99.90;;;;;;5059231;28;20448;-82
2021/09/17 10:25:11;;;;;;;1.03;1.03;;;22.50;99.90;;;;;;5059482;28;20440;-82
2021/09/17 10:27:39;;;;;;;0.50;0.30;;;22.10;99.90;;;;;;5059544;28;20454;-82
2021/09/17 10:30:07;;;;;;;0.60;0.57;;;22.00;99.90;;;;;;5059823;28;20438;-80
2021/09/17 10:32:47;;;;;;;0.50;0.30;;;22.20;99.90;;;;;;5060195;28;20451;-83
2021/09/17 10:35:17;;;;;;;0.50;0.50;;;22.40;99.90;;;;;;5059346;28;20490;-82
2021/09/17 10:38:15;;;;;;;0.83;0.80;;;22.70;99.90;;;;;;5059128;28;20979;-83
2021/09/17 10:40:50;;;;;;;0.50;0.37;;;23.00;99.90;;;;;;5059387;28;20480;-82
2021/09/17 10:43:23;;;;;;;1.00;0.90;;;23.50;99.90;;;;;;5059720;28;20782;-82
2021/09/17 10:45:50;;;;;;;4.10;3.80;;;24.10;99.90;;;;;;5058306;28;20829;-83
2021/09/17 10:48:19;;;;;;;0.60;0.50;;;23.70;99.90;;;;;;5059133;28;20877;-81
2021/09/17 10:50:52;;;;;;;0.50;0.30;;;23.80;99.90;;;;;;5058791;28;20468;-81
2021/09/17 10:54:02;;;;;;;2.80;2.70;;;23.70;99.90;;;;;;5060180;28;20416;-83
2021/09/17 10:57:01;;;;;;;2.10;2.00;;;23.80;99.90;;;;;;5060753;28;20488;-82
2021/09/17 10:59:43;;;;;;;2.20;2.10;;;24.10;99.90;;;;;;5059454;28;20429;-81
2021/09/17 11:02:11;;;;;;;1.63;1.53;;;24.20;99.90;;;;;;5058748;28;20495;-82
2021/09/17 11:04:39;;;;;;;0.50;0.40;;;24.40;99.90;;;;;;5060839;28;20574;-82
2021/09/17 11:07:33;;;;;;;1.70;1.60;;;24.90;99.90;;;;;;5062352;28;20444;-83
2021/09/17 11:10:03;;;;;;;3.73;1.40;;;25.90;99.90;;;;;;5060250;28;20936;-83
2021/09/17 11:12:31;;;;;;;0.50;0.30;;;26.80;99.90;;;;;;5059411;28;20447;-83
2021/09/17 11:15:08;;;;;;;0.50;0.30;;;28.00;98.50;;;;;;5059531;28;20448;-83
2021/09/17 11:17:46;;;;;;;1.27;1.13;;;28.80;92.20;;;;;;5059754;28;20474;-84
2021/09/17 11:20:16;;;;;;;0.50;0.30;;;29.80;88.30;;;;;;5059637;28;20825;-84
2021/09/17 11:22:52;;;;;;;1.57;1.47;;;29.80;85.00;;;;;;5059478;28;20456;-83
2021/09/17 11:25:32;;;;;;;1.23;0.90;;;29.20;80.10;;;;;;5052993;28;20435;-83
2021/09/17 11:27:59;;;;;;;3.10;3.00;;;29.60;79.40;;;;;;5059315;28;20840;-83
2021/09/17 11:30:29;;;;;;;1.17;1.17;;;29.90;77.90;;;;;;5058640;28;21076;-83
2021/09/17 11:32:56;;;;;;;0.50;0.30;;;30.20;77.80;;;;;;5059397;28;20440;-83
2021/09/17 11:35:23;;;;;;;0.50;0.30;;;30.80;81.40;;;;;;5058766;28;20497;-83
2021/09/17 11:37:52;;;;;;;0.80;0.80;;;31.90;73.70;;;;;;5059270;28;20491;-83
2021/09/17 11:40:19;;;;;;;0.60;0.57;;;32.30;68.90;;;;;;5058952;28;20938;-84
2021/09/17 11:42:47;;;;;;;1.90;1.70;;;31.10;70.10;;;;;;5059167;28;20934;-83
2021/09/17 11:45:15;;;;;;;1.47;1.37;;;30.30;73.40;;;;;;5059121;28;20451;-82
2021/09/17 11:47:46;;;;;;;0.50;0.30;;;30.20;72.70;;;;;;5060936;28;20455;-83
2021/09/17 11:50:14;;;;;;;1.17;0.83;;;31.10;73.90;;;;;;5063212;28;20440;-83
2021/09/17 11:52:42;;;;;;;0.50;0.30;;;30.80;71.30;;;;;;5058637;28;20451;-83
2021/09/17 11:55:11;;;;;;;0.50;0.30;;;30.40;75.40;;;;;;5059585;28;20441;-83
2021/09/17 11:57:40;;;;;;;0.60;0.57;;;30.90;73.90;;;;;;5059550;28;20457;-82
2021/09/17 12:00:08;;;;;;;0.50;0.30;;;31.20;71.30;;;;;;5059002;28;20472;-81
2021/09/17 12:02:35;;;;;;;1.80;1.70;;;29.80;72.90;;;;;;5059880;28;20442;-83
2021/09/17 12:05:06;;;;;;;0.50;0.30;;;29.60;75.40;;;;;;5059531;28;20830;-84
2021/09/17 12:07:34;;;;;;;1.13;1.03;;;29.10;78.10;;;;;;5059315;28;20465;-83
2021/09/17 12:10:09;;;;;;;0.50;0.40;;;29.00;78.30;;;;;;5059271;28;20439;-82
2021/09/17 12:12:38;;;;;;;1.63;0.90;;;29.00;78.60;;;;;;5058268;28;20452;-83
2021/09/17 12:15:06;;;;;;;3.27;2.93;;;28.80;78.50;;;;;;5057956;28;20445;-82
2021/09/17 12:17:33;;;;;;;0.50;0.33;;;28.40;80.30;;;;;;5059284;28;20463;-82
2021/09/17 12:20:04;;;;;;;16.87;3.40;;;28.00;82.80;;;;;;5057324;28;20451;-80
2021/09/17 12:22:34;;;;;;;0.60;0.50;;;26.80;85.50;;;;;;5057260;28;20458;-81
2021/09/17 12:25:07;;;;;;;2.17;2.07;;;26.00;91.60;;;;;;5058135;28;20439;-83
2021/09/17 12:27:35;;;;;;;2.37;2.20;;;25.40;96.50;;;;;;5055816;28;20462;-82
2021/09/17 12:30:03;;;;;;;0.50;0.50;;;24.90;99.90;;;;;;5056754;28;20434;-82
2021/09/17 12:32:31;;;;;;;0.50;0.30;;;24.50;99.90;;;;;;5057018;28;20446;-83
2021/09/17 12:35:12;;;;;;;0.57;0.47;;;24.50;99.90;;;;;;5056707;28;20458;-83
2021/09/17 12:37:41;;;;;;;0.50;0.30;;;24.90;99.90;;;;;;5057316;28;20468;-82
2021/09/17 12:40:14;;;;;;;0.70;0.70;;;25.90;99.90;;;;;;5060728;28;20458;-83
2021/09/17 12:42:41;;;;;;;2.73;2.50;;;26.40;99.90;;;;;;5055958;28;20497;-82
2021/09/17 12:45:09;;;;;;;0.60;0.57;;;26.20;99.90;;;;;;5056108;28;20461;-80
2021/09/17 12:47:36;;;;;;;0.50;0.30;;;25.60;99.90;;;;;;5055573;28;20456;-83
2021/09/17 12:50:10;;;;;;;0.50;0.30;;;25.10;99.90;;;;;;5057432;28;20444;-80
2021/09/17 12:52:38;;;;;;;0.50;0.50;;;24.70;99.90;;;;;;5055858;28;20439;-82
2021/09/17 12:55:21;;;;;;;0.50;0.40;;;24.40;99.90;;;;;;5056983;28;20502;-82